sensor_id;sensor_type;location;lat;lon;timestamp;P1;durP1;ratioP1;P2;durP2;ratioP2
12921;SDS011;6528;48.086;16.282;2022-12-18T00:01:45;6.20;;;5.70;;
12921;SDS011;6528;48.086;16.282;2022-12-18T00:04:18;6.43;;;5.77;;
12921;SDS011;6528;48.086;16.282;2022-12-18T00:06:47;6.07;;;5.57;;
12921;SDS011;6528;48.086;16.282;2022-12-18T00:09:15;5.43;;;4.93;;
12921;SDS011;6528;48.086;16.282;2022-12-18T00:11:42;6.30;;;5.47;;
12921;SDS011;6528;48.086;16.282;2022-12-18T00:14:11;6.47;;;5.77;;
12921;SDS011;6528;48.086;16.282;2022-12-18T00:16:38;6.10;;;5.60;;
12921;SDS011;6528;48.086;16.282;2022-12-18T00:19:06;6.00;;;5.33;;
12921;SDS011;6528;48.086;16.282;2022-12-18T00:21:33;6.20;;;5.43;;
12921;SDS011;6528;48.086;16.282;2022-12-18T00:24:00;6.10;;;5.50;;
12921;SDS011;6528;48.086;16.282;2022-12-18T00:26:29;5.97;;;5.37;;
12921;SDS011;6528;48.086;16.282;2022-12-18T00:29:17;6.23;;;5.63;;
12921;SDS011;6528;48.086;16.282;2022-12-18T00:31:43;5.90;;;5.40;;
12921;SDS011;6528;48.086;16.282;2022-12-18T00:34:11;6.07;;;5.57;;
12921;SDS011;6528;48.086;16.282;2022-12-18T00:36:39;5.40;;;5.00;;
12921;SDS011;6528;48.086;16.282;2022-12-18T00:39:07;5.67;;;5.00;;
12921;SDS011;6528;48.086;16.282;2022-12-18T00:41:34;4.77;;;4.37;;
12921;SDS011;6528;48.086;16.282;2022-12-18T00:44:20;5.70;;;5.20;;
12921;SDS011;6528;48.086;16.282;2022-12-18T00:46:47;6.37;;;5.77;;
12921;SDS011;6528;48.086;16.282;2022-12-18T00:49:16;5.33;;;4.90;;
12921;SDS011;6528;48.086;16.282;2022-12-18T00:51:44;5.50;;;5.10;;
12921;SDS011;6528;48.086;16.282;2022-12-18T00:54:12;5.70;;;5.10;;
12921;SDS011;6528;48.086;16.282;2022-12-18T00:56:39;4.87;;;4.47;;
12921;SDS011;6528;48.086;16.282;2022-12-18T00:59:14;5.93;;;5.43;;
12921;SDS011;6528;48.086;16.282;2022-12-18T01:01:41;4.63;;;4.27;;
12921;SDS011;6528;48.086;16.282;2022-12-18T01:04:08;5.83;;;5.00;;
12921;SDS011;6528;48.086;16.282;2022-12-18T01:06:36;5.47;;;5.07;;
12921;SDS011;6528;48.086;16.282;2022-12-18T01:09:03;6.03;;;4.97;;
12921;SDS011;6528;48.086;16.282;2022-12-18T01:11:30;5.53;;;5.03;;
12921;SDS011;6528;48.086;16.282;2022-12-18T01:13:57;5.83;;;5.37;;
12921;SDS011;6528;48.086;16.282;2022-12-18T01:16:25;5.77;;;5.27;;
12921;SDS011;6528;48.086;16.282;2022-12-18T01:18:52;5.00;;;4.60;;
12921;SDS011;6528;48.086;16.282;2022-12-18T01:21:21;4.13;;;3.83;;
12921;SDS011;6528;48.086;16.282;2022-12-18T01:23:55;5.10;;;4.70;;
12921;SDS011;6528;48.086;16.282;2022-12-18T01:26:23;4.63;;;4.23;;
12921;SDS011;6528;48.086;16.282;2022-12-18T01:28:50;5.07;;;4.40;;
12921;SDS011;6528;48.086;16.282;2022-12-18T01:31:22;4.90;;;4.47;;
12921;SDS011;6528;48.086;16.282;2022-12-18T01:33:50;4.37;;;3.97;;
12921;SDS011;6528;48.086;16.282;2022-12-18T01:36:27;4.40;;;4.00;;
12921;SDS011;6528;48.086;16.282;2022-12-18T01:38:55;6.00;;;5.33;;
12921;SDS011;6528;48.086;16.282;2022-12-18T01:41:24;5.43;;;4.60;;
12921;SDS011;6528;48.086;16.282;2022-12-18T01:43:55;4.57;;;4.17;;
12921;SDS011;6528;48.086;16.282;2022-12-18T01:46:26;4.87;;;4.47;;
12921;SDS011;6528;48.086;16.282;2022-12-18T01:48:54;5.20;;;4.80;;
12921;SDS011;6528;48.086;16.282;2022-12-18T01:51:23;5.23;;;4.80;;
12921;SDS011;6528;48.086;16.282;2022-12-18T01:53:50;4.63;;;4.23;;
12921;SDS011;6528;48.086;16.282;2022-12-18T01:56:18;5.47;;;4.97;;
12921;SDS011;6528;48.086;16.282;2022-12-18T01:59:00;7.07;;;4.37;;
12921;SDS011;6528;48.086;16.282;2022-12-18T02:01:28;4.90;;;4.50;;
12921;SDS011;6528;48.086;16.282;2022-12-18T02:03:56;4.50;;;4.20;;
12921;SDS011;6528;48.086;16.282;2022-12-18T02:06:41;5.50;;;5.00;;
12921;SDS011;6528;48.086;16.282;2022-12-18T02:09:15;5.10;;;4.60;;
12921;SDS011;6528;48.086;16.282;2022-12-18T02:16:57;4.63;;;4.30;;
12921;SDS011;6528;48.086;16.282;2022-12-18T02:27:28;5.33;;;4.83;;
12921;SDS011;6528;48.086;16.282;2022-12-18T02:29:56;5.40;;;5.00;;
12921;SDS011;6528;48.086;16.282;2022-12-18T02:32:25;4.80;;;4.40;;
12921;SDS011;6528;48.086;16.282;2022-12-18T02:34:54;5.30;;;4.80;;
12921;SDS011;6528;48.086;16.282;2022-12-18T02:37:22;5.30;;;4.90;;
12921;SDS011;6528;48.086;16.282;2022-12-18T02:39:50;4.93;;;4.53;;
12921;SDS011;6528;48.086;16.282;2022-12-18T02:42:18;5.50;;;5.00;;
12921;SDS011;6528;48.086;16.282;2022-12-18T02:44:49;5.50;;;5.00;;
12921;SDS011;6528;48.086;16.282;2022-12-18T02:47:17;5.40;;;4.93;;
12921;SDS011;6528;48.086;16.282;2022-12-18T02:57:45;4.73;;;4.33;;
12921;SDS011;6528;48.086;16.282;2022-12-18T03:00:17;4.87;;;4.47;;
12921;SDS011;6528;48.086;16.282;2022-12-18T03:02:48;4.90;;;4.50;;
12921;SDS011;6528;48.086;16.282;2022-12-18T03:05:22;4.70;;;4.30;;
12921;SDS011;6528;48.086;16.282;2022-12-18T03:07:53;5.30;;;4.50;;
12921;SDS011;6528;48.086;16.282;2022-12-18T03:10:26;4.20;;;3.80;;
12921;SDS011;6528;48.086;16.282;2022-12-18T03:12:58;4.80;;;4.40;;
12921;SDS011;6528;48.086;16.282;2022-12-18T03:15:30;4.67;;;4.27;;
12921;SDS011;6528;48.086;16.282;2022-12-18T03:18:06;4.37;;;4.00;;
12921;SDS011;6528;48.086;16.282;2022-12-18T03:20:34;4.93;;;4.53;;
12921;SDS011;6528;48.086;16.282;2022-12-18T03:23:04;4.70;;;4.40;;
12921;SDS011;6528;48.086;16.282;2022-12-18T03:25:33;4.43;;;4.13;;
12921;SDS011;6528;48.086;16.282;2022-12-18T03:28:01;5.00;;;4.10;;
12921;SDS011;6528;48.086;16.282;2022-12-18T03:30:29;4.57;;;4.27;;
12921;SDS011;6528;48.086;16.282;2022-12-18T03:35:45;3.80;;;3.50;;
12921;SDS011;6528;48.086;16.282;2022-12-18T03:38:13;3.90;;;3.60;;
12921;SDS011;6528;48.086;16.282;2022-12-18T03:43:45;4.40;;;4.00;;
12921;SDS011;6528;48.086;16.282;2022-12-18T03:48:44;4.70;;;4.30;;
12921;SDS011;6528;48.086;16.282;2022-12-18T03:51:37;4.07;;;3.67;;
12921;SDS011;6528;48.086;16.282;2022-12-18T03:54:02;4.50;;;4.10;;
12921;SDS011;6528;48.086;16.282;2022-12-18T03:56:31;4.57;;;4.20;;
12921;SDS011;6528;48.086;16.282;2022-12-18T03:58:58;6.30;;;4.60;;
12921;SDS011;6528;48.086;16.282;2022-12-18T04:01:28;4.83;;;4.43;;
12921;SDS011;6528;48.086;16.282;2022-12-18T04:03:58;4.47;;;4.17;;
12921;SDS011;6528;48.086;16.282;2022-12-18T04:06:26;4.47;;;4.17;;
12921;SDS011;6528;48.086;16.282;2022-12-18T04:08:53;3.63;;;3.33;;
12921;SDS011;6528;48.086;16.282;2022-12-18T04:11:20;4.10;;;3.80;;
12921;SDS011;6528;48.086;16.282;2022-12-18T04:13:47;4.93;;;4.40;;
12921;SDS011;6528;48.086;16.282;2022-12-18T04:16:14;4.40;;;4.10;;
12921;SDS011;6528;48.086;16.282;2022-12-18T04:18:42;4.10;;;3.70;;
12921;SDS011;6528;48.086;16.282;2022-12-18T04:21:09;4.80;;;4.40;;
12921;SDS011;6528;48.086;16.282;2022-12-18T04:23:36;4.07;;;3.77;;
12921;SDS011;6528;48.086;16.282;2022-12-18T04:26:04;4.20;;;3.90;;
12921;SDS011;6528;48.086;16.282;2022-12-18T04:28:31;4.73;;;4.30;;
12921;SDS011;6528;48.086;16.282;2022-12-18T04:30:59;4.80;;;4.40;;
12921;SDS011;6528;48.086;16.282;2022-12-18T04:33:26;4.63;;;4.23;;
12921;SDS011;6528;48.086;16.282;2022-12-18T04:35:53;4.47;;;4.07;;
12921;SDS011;6528;48.086;16.282;2022-12-18T04:38:20;3.90;;;3.63;;
12921;SDS011;6528;48.086;16.282;2022-12-18T04:40:47;3.97;;;3.67;;
12921;SDS011;6528;48.086;16.282;2022-12-18T04:43:14;3.97;;;3.67;;
12921;SDS011;6528;48.086;16.282;2022-12-18T04:45:42;4.20;;;3.80;;
12921;SDS011;6528;48.086;16.282;2022-12-18T04:48:09;4.97;;;4.57;;
12921;SDS011;6528;48.086;16.282;2022-12-18T04:50:36;4.23;;;3.93;;
12921;SDS011;6528;48.086;16.282;2022-12-18T04:53:03;3.90;;;3.60;;
12921;SDS011;6528;48.086;16.282;2022-12-18T04:55:30;4.27;;;3.87;;
12921;SDS011;6528;48.086;16.282;2022-12-18T04:57:58;4.10;;;3.80;;
12921;SDS011;6528;48.086;16.282;2022-12-18T05:00:25;4.60;;;4.00;;
12921;SDS011;6528;48.086;16.282;2022-12-18T05:02:52;4.10;;;3.80;;
12921;SDS011;6528;48.086;16.282;2022-12-18T05:05:20;4.07;;;3.77;;
12921;SDS011;6528;48.086;16.282;2022-12-18T05:07:47;4.47;;;4.07;;
12921;SDS011;6528;48.086;16.282;2022-12-18T05:10:14;4.17;;;3.83;;
12921;SDS011;6528;48.086;16.282;2022-12-18T05:12:41;4.07;;;3.77;;
12921;SDS011;6528;48.086;16.282;2022-12-18T05:15:28;4.67;;;4.17;;
12921;SDS011;6528;48.086;16.282;2022-12-18T05:17:56;6.10;;;4.00;;
12921;SDS011;6528;48.086;16.282;2022-12-18T05:20:23;3.90;;;3.60;;
12921;SDS011;6528;48.086;16.282;2022-12-18T05:22:51;3.97;;;3.67;;
12921;SDS011;6528;48.086;16.282;2022-12-18T05:25:18;4.43;;;3.77;;
12921;SDS011;6528;48.086;16.282;2022-12-18T05:27:46;4.57;;;4.17;;
12921;SDS011;6528;48.086;16.282;2022-12-18T05:30:13;3.70;;;3.40;;
12921;SDS011;6528;48.086;16.282;2022-12-18T05:32:41;4.90;;;4.50;;
12921;SDS011;6528;48.086;16.282;2022-12-18T05:35:08;4.63;;;4.20;;
12921;SDS011;6528;48.086;16.282;2022-12-18T05:37:36;4.17;;;3.87;;
12921;SDS011;6528;48.086;16.282;2022-12-18T05:40:08;4.90;;;4.30;;
12921;SDS011;6528;48.086;16.282;2022-12-18T05:42:35;4.30;;;3.97;;
12921;SDS011;6528;48.086;16.282;2022-12-18T05:45:03;4.57;;;3.87;;
12921;SDS011;6528;48.086;16.282;2022-12-18T05:47:30;4.10;;;3.80;;
12921;SDS011;6528;48.086;16.282;2022-12-18T05:49:57;4.27;;;3.97;;
12921;SDS011;6528;48.086;16.282;2022-12-18T05:52:25;4.80;;;4.00;;
12921;SDS011;6528;48.086;16.282;2022-12-18T05:54:52;4.17;;;3.87;;
12921;SDS011;6528;48.086;16.282;2022-12-18T05:57:19;4.50;;;4.20;;
12921;SDS011;6528;48.086;16.282;2022-12-18T05:59:46;4.33;;;4.03;;
12921;SDS011;6528;48.086;16.282;2022-12-18T06:02:13;4.57;;;4.17;;
12921;SDS011;6528;48.086;16.282;2022-12-18T06:04:40;3.10;;;2.90;;
12921;SDS011;6528;48.086;16.282;2022-12-18T06:07:07;4.83;;;4.43;;
12921;SDS011;6528;48.086;16.282;2022-12-18T06:09:34;4.83;;;4.43;;
12921;SDS011;6528;48.086;16.282;2022-12-18T06:12:02;4.80;;;4.40;;
12921;SDS011;6528;48.086;16.282;2022-12-18T06:14:29;4.60;;;4.20;;
12921;SDS011;6528;48.086;16.282;2022-12-18T06:16:56;5.30;;;3.90;;
12921;SDS011;6528;48.086;16.282;2022-12-18T06:19:23;4.30;;;4.00;;
12921;SDS011;6528;48.086;16.282;2022-12-18T06:21:50;4.93;;;4.37;;
12921;SDS011;6528;48.086;16.282;2022-12-18T06:24:17;4.83;;;4.33;;
12921;SDS011;6528;48.086;16.282;2022-12-18T06:26:45;4.67;;;4.27;;
12921;SDS011;6528;48.086;16.282;2022-12-18T06:29:12;4.90;;;4.50;;
12921;SDS011;6528;48.086;16.282;2022-12-18T06:31:39;5.57;;;5.17;;
12921;SDS011;6528;48.086;16.282;2022-12-18T06:34:06;4.50;;;4.10;;
12921;SDS011;6528;48.086;16.282;2022-12-18T06:36:33;4.40;;;4.00;;
12921;SDS011;6528;48.086;16.282;2022-12-18T06:39:00;4.40;;;4.00;;
12921;SDS011;6528;48.086;16.282;2022-12-18T06:41:27;4.20;;;3.90;;
12921;SDS011;6528;48.086;16.282;2022-12-18T06:43:55;5.47;;;4.97;;
12921;SDS011;6528;48.086;16.282;2022-12-18T06:46:25;4.50;;;4.20;;
12921;SDS011;6528;48.086;16.282;2022-12-18T06:48:52;5.77;;;5.27;;
12921;SDS011;6528;48.086;16.282;2022-12-18T06:51:20;5.40;;;4.93;;
12921;SDS011;6528;48.086;16.282;2022-12-18T06:53:47;4.83;;;4.43;;
12921;SDS011;6528;48.086;16.282;2022-12-18T06:56:15;5.70;;;5.20;;
12921;SDS011;6528;48.086;16.282;2022-12-18T06:58:42;6.60;;;6.00;;
12921;SDS011;6528;48.086;16.282;2022-12-18T07:01:10;7.57;;;6.87;;
12921;SDS011;6528;48.086;16.282;2022-12-18T07:03:38;7.07;;;6.47;;
12921;SDS011;6528;48.086;16.282;2022-12-18T07:06:06;5.70;;;5.20;;
12921;SDS011;6528;48.086;16.282;2022-12-18T07:08:39;6.60;;;6.00;;
12921;SDS011;6528;48.086;16.282;2022-12-18T07:11:06;6.10;;;5.57;;
12921;SDS011;6528;48.086;16.282;2022-12-18T07:13:33;6.63;;;6.03;;
12921;SDS011;6528;48.086;16.282;2022-12-18T07:16:04;6.67;;;6.07;;
12921;SDS011;6528;48.086;16.282;2022-12-18T07:18:40;6.50;;;5.90;;
12921;SDS011;6528;48.086;16.282;2022-12-18T07:21:08;7.50;;;6.80;;
12921;SDS011;6528;48.086;16.282;2022-12-18T07:23:36;6.70;;;6.10;;
12921;SDS011;6528;48.086;16.282;2022-12-18T07:26:04;6.80;;;6.10;;
12921;SDS011;6528;48.086;16.282;2022-12-18T07:28:32;6.53;;;6.00;;
12921;SDS011;6528;48.086;16.282;2022-12-18T07:31:33;6.97;;;6.37;;
12921;SDS011;6528;48.086;16.282;2022-12-18T07:33:53;6.70;;;6.10;;
12921;SDS011;6528;48.086;16.282;2022-12-18T07:36:20;5.87;;;5.37;;
12921;SDS011;6528;48.086;16.282;2022-12-18T07:38:48;5.93;;;5.33;;
12921;SDS011;6528;48.086;16.282;2022-12-18T07:41:15;7.97;;;6.20;;
12921;SDS011;6528;48.086;16.282;2022-12-18T07:43:42;6.10;;;5.50;;
12921;SDS011;6528;48.086;16.282;2022-12-18T07:46:10;6.30;;;5.70;;
12921;SDS011;6528;48.086;16.282;2022-12-18T07:48:40;6.10;;;5.50;;
12921;SDS011;6528;48.086;16.282;2022-12-18T07:51:08;5.47;;;5.07;;
12921;SDS011;6528;48.086;16.282;2022-12-18T07:53:36;6.33;;;5.73;;
12921;SDS011;6528;48.086;16.282;2022-12-18T07:56:05;5.80;;;5.40;;
12921;SDS011;6528;48.086;16.282;2022-12-18T07:58:53;5.97;;;5.47;;
12921;SDS011;6528;48.086;16.282;2022-12-18T08:01:20;6.23;;;5.63;;
12921;SDS011;6528;48.086;16.282;2022-12-18T08:03:48;5.70;;;5.20;;
12921;SDS011;6528;48.086;16.282;2022-12-18T08:06:17;6.33;;;5.83;;
12921;SDS011;6528;48.086;16.282;2022-12-18T08:08:48;5.13;;;4.73;;
12921;SDS011;6528;48.086;16.282;2022-12-18T08:11:15;6.30;;;5.80;;
12921;SDS011;6528;48.086;16.282;2022-12-18T08:13:42;5.80;;;5.30;;
12921;SDS011;6528;48.086;16.282;2022-12-18T08:16:09;5.67;;;5.17;;
12921;SDS011;6528;48.086;16.282;2022-12-18T08:18:37;5.10;;;4.70;;
12921;SDS011;6528;48.086;16.282;2022-12-18T08:21:11;6.40;;;5.80;;
12921;SDS011;6528;48.086;16.282;2022-12-18T08:23:38;5.43;;;4.80;;
12921;SDS011;6528;48.086;16.282;2022-12-18T08:26:09;5.20;;;4.80;;
12921;SDS011;6528;48.086;16.282;2022-12-18T08:28:36;6.43;;;5.80;;
12921;SDS011;6528;48.086;16.282;2022-12-18T08:31:03;5.40;;;5.00;;
12921;SDS011;6528;48.086;16.282;2022-12-18T08:33:31;5.80;;;5.27;;
12921;SDS011;6528;48.086;16.282;2022-12-18T08:35:59;5.20;;;4.70;;
12921;SDS011;6528;48.086;16.282;2022-12-18T08:38:26;5.73;;;5.20;;
12921;SDS011;6528;48.086;16.282;2022-12-18T08:41:00;6.10;;;5.50;;
12921;SDS011;6528;48.086;16.282;2022-12-18T08:43:27;6.30;;;5.70;;
12921;SDS011;6528;48.086;16.282;2022-12-18T08:46:13;6.33;;;5.73;;
12921;SDS011;6528;48.086;16.282;2022-12-18T08:48:41;5.20;;;4.70;;
12921;SDS011;6528;48.086;16.282;2022-12-18T08:51:08;6.27;;;5.77;;
12921;SDS011;6528;48.086;16.282;2022-12-18T08:53:36;7.07;;;6.37;;
12921;SDS011;6528;48.086;16.282;2022-12-18T08:56:04;8.83;;;7.57;;
12921;SDS011;6528;48.086;16.282;2022-12-18T08:58:31;10.50;;;9.17;;
12921;SDS011;6528;48.086;16.282;2022-12-18T09:01:06;7.70;;;6.90;;
12921;SDS011;6528;48.086;16.282;2022-12-18T09:03:33;9.20;;;8.20;;
12921;SDS011;6528;48.086;16.282;2022-12-18T09:06:00;7.50;;;6.80;;
12921;SDS011;6528;48.086;16.282;2022-12-18T09:08:28;9.37;;;8.40;;
12921;SDS011;6528;48.086;16.282;2022-12-18T09:10:55;9.43;;;8.50;;
12921;SDS011;6528;48.086;16.282;2022-12-18T09:13:22;8.40;;;7.53;;
12921;SDS011;6528;48.086;16.282;2022-12-18T09:15:51;9.13;;;8.23;;
12921;SDS011;6528;48.086;16.282;2022-12-18T09:18:19;9.13;;;8.23;;
12921;SDS011;6528;48.086;16.282;2022-12-18T09:20:46;9.70;;;7.80;;
12921;SDS011;6528;48.086;16.282;2022-12-18T09:23:13;7.70;;;7.00;;
12921;SDS011;6528;48.086;16.282;2022-12-18T09:25:40;9.60;;;8.00;;
12921;SDS011;6528;48.086;16.282;2022-12-18T09:30:41;9.60;;;8.40;;
12921;SDS011;6528;48.086;16.282;2022-12-18T09:33:08;9.63;;;7.93;;
12921;SDS011;6528;48.086;16.282;2022-12-18T09:35:36;8.70;;;7.80;;
12921;SDS011;6528;48.086;16.282;2022-12-18T09:38:03;8.30;;;7.50;;
12921;SDS011;6528;48.086;16.282;2022-12-18T09:40:34;7.67;;;6.97;;
12921;SDS011;6528;48.086;16.282;2022-12-18T09:43:03;15.87;;;13.30;;
12921;SDS011;6528;48.086;16.282;2022-12-18T09:45:38;20.37;;;18.27;;
12921;SDS011;6528;48.086;16.282;2022-12-18T09:48:15;22.03;;;19.73;;
12921;SDS011;6528;48.086;16.282;2022-12-18T09:50:45;17.37;;;15.60;;
12921;SDS011;6528;48.086;16.282;2022-12-18T09:53:17;15.43;;;13.83;;
12921;SDS011;6528;48.086;16.282;2022-12-18T09:55:46;14.30;;;12.80;;
12921;SDS011;6528;48.086;16.282;2022-12-18T10:01:00;14.40;;;13.00;;
12921;SDS011;6528;48.086;16.282;2022-12-18T10:03:27;14.60;;;11.83;;
12921;SDS011;6528;48.086;16.282;2022-12-18T10:11:00;12.03;;;9.93;;
12921;SDS011;6528;48.086;16.282;2022-12-18T10:13:33;11.80;;;10.53;;
12921;SDS011;6528;48.086;16.282;2022-12-18T10:16:13;11.30;;;9.30;;
12921;SDS011;6528;48.086;16.282;2022-12-18T10:21:16;12.43;;;11.23;;
12921;SDS011;6528;48.086;16.282;2022-12-18T10:23:54;13.30;;;10.70;;
12921;SDS011;6528;48.086;16.282;2022-12-18T10:26:24;11.10;;;10.10;;
12921;SDS011;6528;48.086;16.282;2022-12-18T10:28:51;10.53;;;9.53;;
12921;SDS011;6528;48.086;16.282;2022-12-18T10:31:20;11.23;;;10.13;;
12921;SDS011;6528;48.086;16.282;2022-12-18T10:33:50;10.40;;;9.50;;
12921;SDS011;6528;48.086;16.282;2022-12-18T10:36:17;9.53;;;8.60;;
12921;SDS011;6528;48.086;16.282;2022-12-18T10:38:44;10.40;;;9.40;;
12921;SDS011;6528;48.086;16.282;2022-12-18T10:43:47;9.77;;;8.80;;
12921;SDS011;6528;48.086;16.282;2022-12-18T10:46:15;10.00;;;8.97;;
12921;SDS011;6528;48.086;16.282;2022-12-18T10:51:23;9.43;;;8.47;;
12921;SDS011;6528;48.086;16.282;2022-12-18T10:53:59;8.40;;;7.70;;
12921;SDS011;6528;48.086;16.282;2022-12-18T10:56:28;10.37;;;9.37;;
12921;SDS011;6528;48.086;16.282;2022-12-18T10:59:00;10.37;;;9.40;;
12921;SDS011;6528;48.086;16.282;2022-12-18T11:01:32;9.30;;;8.40;;
12921;SDS011;6528;48.086;16.282;2022-12-18T11:04:13;8.20;;;7.40;;
12921;SDS011;6528;48.086;16.282;2022-12-18T11:06:56;9.07;;;8.17;;
12921;SDS011;6528;48.086;16.282;2022-12-18T11:09:27;9.43;;;8.53;;
12921;SDS011;6528;48.086;16.282;2022-12-18T11:11:55;9.70;;;8.40;;
12921;SDS011;6528;48.086;16.282;2022-12-18T11:16:50;14.03;;;10.63;;
12921;SDS011;6528;48.086;16.282;2022-12-18T11:19:39;12.10;;;9.87;;
12921;SDS011;6528;48.086;16.282;2022-12-18T11:22:20;10.73;;;9.50;;
12921;SDS011;6528;48.086;16.282;2022-12-18T11:27:40;115.47;;;56.50;;
12921;SDS011;6528;48.086;16.282;2022-12-18T11:30:21;123.13;;;57.90;;
12921;SDS011;6528;48.086;16.282;2022-12-18T11:32:49;104.23;;;49.60;;
12921;SDS011;6528;48.086;16.282;2022-12-18T11:35:32;100.70;;;49.80;;
12921;SDS011;6528;48.086;16.282;2022-12-18T11:38:04;98.80;;;49.60;;
12921;SDS011;6528;48.086;16.282;2022-12-18T11:40:36;97.73;;;49.27;;
12921;SDS011;6528;48.086;16.282;2022-12-18T11:43:09;84.10;;;45.73;;
12921;SDS011;6528;48.086;16.282;2022-12-18T11:45:43;82.70;;;44.10;;
12921;SDS011;6528;48.086;16.282;2022-12-18T11:48:14;91.20;;;45.03;;
12921;SDS011;6528;48.086;16.282;2022-12-18T11:50:50;88.03;;;41.93;;
12921;SDS011;6528;48.086;16.282;2022-12-18T11:53:18;78.27;;;39.67;;
12921;SDS011;6528;48.086;16.282;2022-12-18T12:00:49;67.67;;;36.70;;
12921;SDS011;6528;48.086;16.282;2022-12-18T12:11:17;59.33;;;32.10;;
12921;SDS011;6528;48.086;16.282;2022-12-18T12:16:25;60.33;;;32.70;;
12921;SDS011;6528;48.086;16.282;2022-12-18T12:24:05;45.10;;;27.80;;
12921;SDS011;6528;48.086;16.282;2022-12-18T12:31:55;43.70;;;27.27;;
12921;SDS011;6528;48.086;16.282;2022-12-18T12:34:34;39.87;;;24.57;;
12921;SDS011;6528;48.086;16.282;2022-12-18T12:37:25;37.50;;;25.27;;
12921;SDS011;6528;48.086;16.282;2022-12-18T12:39:56;43.90;;;24.60;;
12921;SDS011;6528;48.086;16.282;2022-12-18T12:45:16;41.03;;;22.90;;
12921;SDS011;6528;48.086;16.282;2022-12-18T12:47:46;41.80;;;23.87;;
12921;SDS011;6528;48.086;16.282;2022-12-18T12:50:16;36.80;;;22.70;;
12921;SDS011;6528;48.086;16.282;2022-12-18T12:52:49;35.03;;;21.17;;
12921;SDS011;6528;48.086;16.282;2022-12-18T12:55:21;36.60;;;22.73;;
12921;SDS011;6528;48.086;16.282;2022-12-18T13:00:20;33.63;;;20.70;;
12921;SDS011;6528;48.086;16.282;2022-12-18T13:02:52;38.60;;;22.57;;
12921;SDS011;6528;48.086;16.282;2022-12-18T13:07:59;30.60;;;19.90;;
12921;SDS011;6528;48.086;16.282;2022-12-18T13:10:38;34.00;;;20.63;;
12921;SDS011;6528;48.086;16.282;2022-12-18T13:13:08;32.53;;;20.63;;
12921;SDS011;6528;48.086;16.282;2022-12-18T13:15:37;27.73;;;18.60;;
12921;SDS011;6528;48.086;16.282;2022-12-18T13:20:40;23.73;;;17.80;;
12921;SDS011;6528;48.086;16.282;2022-12-18T13:31:15;23.07;;;17.10;;
12921;SDS011;6528;48.086;16.282;2022-12-18T13:36:54;24.93;;;16.90;;
12921;SDS011;6528;48.086;16.282;2022-12-18T13:44:35;21.33;;;16.30;;
12921;SDS011;6528;48.086;16.282;2022-12-18T13:49:52;25.03;;;14.37;;
12921;SDS011;6528;48.086;16.282;2022-12-18T13:52:24;19.57;;;14.40;;
12921;SDS011;6528;48.086;16.282;2022-12-18T13:54:52;19.70;;;14.43;;
12921;SDS011;6528;48.086;16.282;2022-12-18T13:57:25;23.43;;;16.10;;
12921;SDS011;6528;48.086;16.282;2022-12-18T13:59:52;18.53;;;13.93;;
12921;SDS011;6528;48.086;16.282;2022-12-18T14:02:23;18.93;;;15.57;;
12921;SDS011;6528;48.086;16.282;2022-12-18T14:04:51;18.63;;;14.13;;
12921;SDS011;6528;48.086;16.282;2022-12-18T14:07:19;19.00;;;13.60;;
12921;SDS011;6528;48.086;16.282;2022-12-18T14:09:55;17.30;;;13.67;;
12921;SDS011;6528;48.086;16.282;2022-12-18T14:12:49;18.30;;;14.40;;
12921;SDS011;6528;48.086;16.282;2022-12-18T14:15:35;17.00;;;13.50;;
12921;SDS011;6528;48.086;16.282;2022-12-18T14:20:50;15.03;;;13.43;;
12921;SDS011;6528;48.086;16.282;2022-12-18T14:23:52;16.20;;;13.13;;
12921;SDS011;6528;48.086;16.282;2022-12-18T14:28:53;15.63;;;12.97;;
12921;SDS011;6528;48.086;16.282;2022-12-18T14:31:21;18.30;;;12.90;;
12921;SDS011;6528;48.086;16.282;2022-12-18T14:33:51;14.57;;;13.07;;
12921;SDS011;6528;48.086;16.282;2022-12-18T14:36:22;16.00;;;12.60;;
12921;SDS011;6528;48.086;16.282;2022-12-18T14:38:53;18.37;;;12.80;;
12921;SDS011;6528;48.086;16.282;2022-12-18T14:41:21;16.70;;;14.30;;
12921;SDS011;6528;48.086;16.282;2022-12-18T14:43:50;16.00;;;13.03;;
12921;SDS011;6528;48.086;16.282;2022-12-18T14:48:54;15.13;;;12.77;;
12921;SDS011;6528;48.086;16.282;2022-12-18T14:51:22;17.73;;;14.17;;
12921;SDS011;6528;48.086;16.282;2022-12-18T14:53:59;13.87;;;12.40;;
12921;SDS011;6528;48.086;16.282;2022-12-18T14:56:31;13.63;;;11.67;;
12921;SDS011;6528;48.086;16.282;2022-12-18T14:59:32;13.73;;;12.00;;
12921;SDS011;6528;48.086;16.282;2022-12-18T15:07:07;16.17;;;13.10;;
12921;SDS011;6528;48.086;16.282;2022-12-18T15:09:35;14.83;;;13.23;;
12921;SDS011;6528;48.086;16.282;2022-12-18T15:12:02;13.70;;;12.30;;
12921;SDS011;6528;48.086;16.282;2022-12-18T15:14:40;15.03;;;12.40;;
12921;SDS011;6528;48.086;16.282;2022-12-18T15:17:41;14.63;;;12.73;;
12921;SDS011;6528;48.086;16.282;2022-12-18T15:20:02;14.83;;;12.70;;
12921;SDS011;6528;48.086;16.282;2022-12-18T15:22:30;15.63;;;12.33;;
12921;SDS011;6528;48.086;16.282;2022-12-18T15:24:58;17.33;;;11.57;;
12921;SDS011;6528;48.086;16.282;2022-12-18T15:30:26;15.13;;;13.50;;
12921;SDS011;6528;48.086;16.282;2022-12-18T15:32:46;13.03;;;11.77;;
12921;SDS011;6528;48.086;16.282;2022-12-18T15:35:22;15.27;;;12.17;;
12921;SDS011;6528;48.086;16.282;2022-12-18T15:37:50;13.40;;;11.90;;
12921;SDS011;6528;48.086;16.282;2022-12-18T15:40:18;13.87;;;12.47;;
12921;SDS011;6528;48.086;16.282;2022-12-18T15:42:46;14.40;;;12.90;;
12921;SDS011;6528;48.086;16.282;2022-12-18T15:45:32;14.10;;;12.70;;
12921;SDS011;6528;48.086;16.282;2022-12-18T15:47:59;12.87;;;11.23;;
12921;SDS011;6528;48.086;16.282;2022-12-18T15:50:27;14.70;;;12.50;;
12921;SDS011;6528;48.086;16.282;2022-12-18T15:52:55;13.20;;;11.83;;
12921;SDS011;6528;48.086;16.282;2022-12-18T15:55:23;12.43;;;11.23;;
12921;SDS011;6528;48.086;16.282;2022-12-18T15:58:09;12.67;;;11.37;;
12921;SDS011;6528;48.086;16.282;2022-12-18T16:00:39;12.00;;;10.73;;
12921;SDS011;6528;48.086;16.282;2022-12-18T16:03:08;13.97;;;11.80;;
12921;SDS011;6528;48.086;16.282;2022-12-18T16:05:35;12.17;;;10.80;;
12921;SDS011;6528;48.086;16.282;2022-12-18T16:08:03;13.57;;;12.27;;
12921;SDS011;6528;48.086;16.282;2022-12-18T16:10:30;11.87;;;10.67;;
12921;SDS011;6528;48.086;16.282;2022-12-18T16:12:57;12.03;;;10.73;;
12921;SDS011;6528;48.086;16.282;2022-12-18T16:15:24;12.77;;;11.50;;
12921;SDS011;6528;48.086;16.282;2022-12-18T16:17:51;12.13;;;10.90;;
12921;SDS011;6528;48.086;16.282;2022-12-18T16:20:20;14.53;;;12.50;;
12921;SDS011;6528;48.086;16.282;2022-12-18T16:22:47;14.87;;;13.00;;
12921;SDS011;6528;48.086;16.282;2022-12-18T16:25:27;11.27;;;10.17;;
12921;SDS011;6528;48.086;16.282;2022-12-18T16:27:55;12.60;;;11.10;;
12921;SDS011;6528;48.086;16.282;2022-12-18T16:30:23;12.93;;;11.23;;
12921;SDS011;6528;48.086;16.282;2022-12-18T16:32:54;11.70;;;10.57;;
12921;SDS011;6528;48.086;16.282;2022-12-18T16:35:22;13.00;;;11.60;;
12921;SDS011;6528;48.086;16.282;2022-12-18T16:37:49;12.13;;;10.67;;
12921;SDS011;6528;48.086;16.282;2022-12-18T16:40:16;13.20;;;11.67;;
12921;SDS011;6528;48.086;16.282;2022-12-18T16:42:44;12.43;;;11.13;;
12921;SDS011;6528;48.086;16.282;2022-12-18T16:45:13;11.67;;;10.47;;
12921;SDS011;6528;48.086;16.282;2022-12-18T16:47:41;12.97;;;11.17;;
12921;SDS011;6528;48.086;16.282;2022-12-18T16:50:08;11.60;;;10.40;;
12921;SDS011;6528;48.086;16.282;2022-12-18T16:52:35;12.07;;;10.40;;
12921;SDS011;6528;48.086;16.282;2022-12-18T16:55:03;13.23;;;11.27;;
12921;SDS011;6528;48.086;16.282;2022-12-18T16:57:30;11.17;;;10.07;;
12921;SDS011;6528;48.086;16.282;2022-12-18T16:59:57;11.07;;;9.70;;